Main page
Satellite images 15-day forecastsClimateMarine weather Cyclones Lightning AirportsFAQ Newsletter About
Weather : Europe Africa North America South America Asia Australia-Oceania Others
Languages Contact

Cologne, Germany

Flughafen Köln/Bonn

latitude: 50-52N, longitude: 007-10E, elevation: 91 m


METAR: EDDK 170720Z 12003KT CAVOK 17/14 Q1013 NOSIG
short-TAF: out of date (51414 hours)
long-TAF: EDDK 170500Z 1706/1812 VRB03KT CAVOK TEMPO 1711/1716 12009KT PROB30 TEMPO 1811/1812 RA

Time: 09:33 (07:33 UTC)

Current weather observation

The report was made 13 minutes ago, at 07:20 UTC  
Wind 03 kt from the East/Southeast
Temperature 17°C
Humidity 82%
Pressure 1013 hPa
Visibility 10 km or more
no clouds below 1500 m and no cumulonimbus

Change units

Forecast

The report was made 2 hours and 6 minutes ago, at 05:27 UTC  
Forecast valid from 17 at 06 UTC to 18 at 12 UTC
Wind 03 kt from variable directions
Visibility 10 km or more
no clouds below 1500 m and no cumulonimbus
Temporary
from 17 at 11 UTC to 17 at 16 UTC
Wind 09 kt from the East/Southeast
Probability 30% :
Temporary
from 18 at 11 UTC to 18 at 12 UTC
rain
The information on this site is subject to a disclaimer
Weather : Europe Africa North America South America Asia Australia-Oceania Others
Satellite images 15-day forecastsClimateMarine weather Cyclones Lightning AirportsFAQ Languages Contact Newsletter About